createdAt,value
2018-11-13T00:01:47.978Z,29.72
2018-11-13T00:04:18.309Z,29.60
2018-11-13T00:06:48.218Z,29.40
2018-11-13T00:09:18.226Z,30.45
2018-11-13T00:11:48.231Z,31.00
2018-11-13T00:14:18.776Z,31.57
2018-11-13T00:16:48.875Z,32.98
2018-11-13T00:19:18.889Z,31.90
2018-11-13T00:21:49.274Z,33.75
2018-11-13T00:24:19.291Z,33.38
2018-11-13T00:26:49.351Z,36.65
2018-11-13T00:29:19.187Z,36.05
2018-11-13T00:31:49.407Z,32.90
2018-11-13T00:34:19.407Z,34.33
2018-11-13T00:36:49.318Z,34.73
2018-11-13T00:39:19.733Z,35.30
2018-11-13T00:41:49.339Z,35.38
2018-11-13T00:44:19.367Z,35.65
2018-11-13T00:46:49.333Z,36.15
2018-11-13T00:49:19.551Z,34.20
2018-11-13T00:51:49.527Z,35.92
2018-11-13T00:54:19.607Z,34.35
2018-11-13T00:56:49.452Z,36.77
2018-11-13T00:59:19.724Z,36.70
2018-11-13T01:01:49.753Z,36.38
2018-11-13T01:04:19.613Z,36.28
2018-11-13T01:06:49.681Z,38.77
2018-11-13T01:09:19.675Z,38.92
2018-11-13T01:11:49.672Z,34.92
2018-11-13T01:14:19.612Z,39.63
2018-11-13T01:16:49.678Z,37.88
2018-11-13T01:19:19.583Z,39.42
2018-11-13T01:21:49.653Z,40.47
2018-11-13T01:24:19.747Z,39.45
2018-11-13T01:26:49.726Z,39.58
2018-11-13T01:29:19.696Z,40.90
2018-11-13T01:31:49.631Z,40.05
2018-11-13T01:34:19.829Z,38.75
2018-11-13T01:36:49.850Z,41.30
2018-11-13T01:39:19.738Z,40.70
2018-11-13T01:41:50.050Z,42.73
2018-11-13T01:44:19.765Z,42.38
2018-11-13T01:46:49.864Z,44.03
2018-11-13T01:49:19.779Z,42.53
2018-11-13T01:51:50.328Z,43.35
2018-11-13T01:54:20.055Z,44.13
2018-11-13T01:56:50.050Z,45.23
2018-11-13T01:59:20.067Z,44.90
2018-11-13T02:01:50.490Z,46.58
2018-11-13T02:04:20.303Z,46.02
2018-11-13T02:06:50.204Z,44.60
2018-11-13T02:09:20.771Z,45.23
2018-11-13T02:11:50.633Z,45.88
2018-11-13T02:14:20.681Z,45.63
2018-11-13T02:16:50.692Z,47.45
2018-11-13T02:19:20.779Z,47.00
2018-11-13T02:21:50.693Z,48.08
2018-11-13T02:24:20.794Z,46.88
2018-11-13T02:26:50.773Z,48.00
2018-11-13T02:29:20.744Z,46.00
2018-11-13T02:31:50.741Z,48.20
2018-11-13T02:34:20.785Z,47.70
2018-11-13T02:36:50.885Z,48.10
2018-11-13T02:39:20.827Z,46.75
2018-11-13T02:41:50.944Z,45.65
2018-11-13T02:44:20.914Z,46.35
2018-11-13T02:46:57.359Z,46.15
2018-11-13T02:49:26.713Z,46.77
2018-11-13T02:51:56.115Z,43.90
2018-11-13T02:54:25.528Z,44.88
2018-11-13T02:56:54.897Z,44.95
2018-11-13T02:59:24.966Z,46.63
2018-11-13T03:01:54.376Z,44.70
2018-11-13T03:04:23.755Z,43.47
2018-11-13T03:06:53.153Z,42.73
2018-11-13T03:09:22.515Z,42.70
2018-11-13T03:11:51.910Z,44.20
2018-11-13T03:14:21.313Z,42.88
2018-11-13T03:16:51.305Z,43.20
2018-11-13T03:19:21.201Z,43.30
2018-11-13T03:26:50.171Z,41.17
2018-11-13T03:29:19.531Z,42.00
2018-11-13T03:31:48.857Z,40.40
2018-11-13T03:34:18.247Z,40.90
2018-11-13T03:36:47.600Z,40.77
2018-11-13T03:39:16.969Z,40.67
2018-11-13T03:41:46.364Z,40.37
2018-11-13T03:44:15.693Z,41.37
2018-11-13T03:46:45.037Z,41.92
2018-11-13T03:49:14.397Z,40.53
2018-11-13T03:51:43.744Z,39.20
2018-11-13T03:54:13.079Z,40.70
2018-11-13T03:56:42.461Z,39.90
2018-11-13T03:59:11.893Z,38.30
2018-11-13T04:01:41.238Z,39.33
2018-11-13T04:04:14.221Z,39.10
2018-11-13T04:06:44.739Z,38.90
2018-11-13T04:09:15.259Z,39.20
2018-11-13T04:11:44.590Z,37.93
2018-11-13T04:14:13.976Z,38.47
2018-11-13T04:16:43.361Z,38.87
2018-11-13T04:19:12.700Z,39.23
2018-11-13T04:21:42.046Z,38.13
2018-11-13T04:24:11.397Z,37.93
2018-11-13T04:26:40.746Z,37.87
2018-11-13T04:29:10.099Z,35.67
2018-11-13T04:31:39.412Z,37.77
2018-11-13T04:34:08.815Z,38.70
2018-11-13T04:36:38.206Z,38.67
2018-11-13T04:39:07.989Z,37.95
2018-11-13T04:41:37.348Z,34.87
2018-11-13T04:44:06.835Z,36.70
2018-11-13T04:46:36.160Z,36.90
2018-11-13T04:49:05.609Z,37.33
2018-11-13T04:51:35.021Z,36.67
2018-11-13T04:54:04.371Z,36.43
2018-11-13T04:56:33.758Z,36.47
2018-11-13T04:59:03.647Z,35.50
2018-11-13T05:01:32.972Z,36.90
2018-11-13T05:04:02.343Z,36.57
2018-11-13T05:06:31.692Z,36.07
2018-11-13T05:09:01.146Z,36.33
2018-11-13T05:11:30.508Z,36.60
2018-11-13T05:13:59.804Z,35.07
2018-11-13T05:16:29.108Z,35.90
2018-11-13T05:18:58.469Z,36.25
2018-11-13T05:21:27.873Z,36.13
2018-11-13T05:23:57.196Z,35.10
2018-11-13T05:26:32.699Z,35.73
2018-11-13T05:29:01.982Z,37.17
2018-11-13T05:31:31.357Z,34.93
2018-11-13T05:34:00.793Z,36.10
2018-11-13T05:36:30.125Z,35.97
2018-11-13T05:38:59.471Z,35.83
2018-11-13T05:41:28.836Z,36.57
2018-11-13T05:43:58.241Z,33.37
2018-11-13T05:46:27.487Z,36.33
2018-11-13T05:48:56.850Z,36.97
2018-11-13T05:51:26.119Z,33.97
2018-11-13T05:53:55.514Z,34.37
2018-11-13T05:56:24.845Z,33.90
2018-11-13T05:58:54.167Z,33.40
2018-11-13T06:01:23.701Z,34.88
2018-11-13T06:03:53.848Z,34.80
2018-11-13T06:06:24.680Z,34.30
2018-11-13T06:08:53.990Z,33.10
2018-11-13T06:11:23.759Z,34.03
2018-11-13T06:13:53.936Z,32.23
2018-11-13T06:16:23.799Z,32.35
2018-11-13T06:18:53.939Z,32.95
2018-11-13T06:21:23.852Z,32.73
2018-11-13T06:23:53.894Z,32.38
2018-11-13T06:26:23.933Z,31.77
2018-11-13T06:28:53.975Z,33.70
2018-11-13T06:31:24.431Z,33.03
2018-11-13T06:33:54.535Z,33.48
2018-11-13T06:36:24.606Z,31.25
2018-11-13T06:38:54.775Z,32.65
2018-11-13T06:41:26.256Z,32.70
2018-11-13T06:43:55.832Z,30.47
2018-11-13T06:46:25.198Z,31.30
2018-11-13T06:48:55.184Z,30.10
2018-11-13T06:51:25.170Z,31.30
2018-11-13T06:54:12.052Z,32.40
2018-11-13T06:56:41.361Z,30.72
2018-11-13T06:59:10.765Z,31.60
2018-11-13T07:01:40.338Z,32.90
2018-11-13T07:04:09.677Z,31.47
2018-11-13T07:06:39.174Z,33.77
2018-11-13T07:09:09.400Z,33.47
2018-11-13T07:11:38.737Z,31.20
2018-11-13T07:14:07.657Z,32.60
2018-11-13T07:16:36.946Z,33.53
2018-11-13T07:19:06.462Z,31.20
2018-11-13T07:21:35.842Z,31.35
2018-11-13T07:24:05.323Z,32.20
2018-11-13T07:26:34.602Z,32.37
2018-11-13T07:29:03.993Z,31.27
2018-11-13T07:31:33.289Z,31.00
2018-11-13T07:34:02.597Z,31.10
2018-11-13T07:36:31.952Z,31.07
2018-11-13T07:39:01.238Z,31.02
2018-11-13T07:41:30.560Z,30.62
2018-11-13T07:43:59.842Z,30.23
2018-11-13T07:46:29.179Z,31.23
2018-11-13T07:48:58.486Z,31.77
2018-11-13T07:51:27.818Z,30.92
2018-11-13T07:53:57.135Z,29.63
2018-11-13T07:56:26.894Z,31.27
2018-11-13T07:58:56.854Z,30.40
2018-11-13T08:01:26.959Z,30.90
2018-11-13T08:03:56.817Z,31.53
2018-11-13T08:06:26.913Z,31.75
2018-11-13T08:08:57.185Z,30.57
2018-11-13T08:11:27.102Z,30.90
2018-11-13T08:13:57.176Z,30.57
2018-11-13T08:16:27.255Z,30.08
2018-11-13T08:18:57.312Z,30.75
2018-11-13T08:21:27.228Z,31.85
2018-11-13T08:23:57.197Z,30.82
2018-11-13T08:26:27.357Z,30.68
2018-11-13T08:28:57.357Z,30.48
2018-11-13T08:31:27.344Z,32.48
2018-11-13T08:33:57.315Z,30.37
2018-11-13T08:36:27.363Z,29.37
2018-11-13T08:38:57.360Z,32.23
2018-11-13T08:41:27.423Z,29.85
2018-11-13T08:43:57.433Z,30.60
2018-11-13T08:46:27.592Z,30.88
2018-11-13T08:48:57.555Z,30.65
2018-11-13T08:51:27.541Z,29.07
2018-11-13T08:53:57.033Z,29.13
2018-11-13T08:56:26.771Z,30.73
2018-11-13T08:58:56.192Z,28.07
2018-11-13T09:01:25.789Z,29.27
2018-11-13T09:03:55.189Z,29.77
2018-11-13T09:06:24.712Z,28.70
2018-11-13T09:08:54.103Z,28.73
2018-11-13T09:11:23.464Z,30.63
2018-11-13T09:13:52.818Z,29.20
2018-11-13T09:16:22.202Z,29.52
2018-11-13T09:18:51.625Z,30.90
2018-11-13T09:21:20.885Z,28.83
2018-11-13T09:23:50.204Z,30.62
2018-11-13T09:26:19.576Z,30.27
2018-11-13T09:28:48.876Z,30.97
2018-11-13T09:31:18.322Z,33.60
2018-11-13T09:33:47.690Z,31.33
2018-11-13T09:36:17.027Z,31.73
2018-11-13T09:38:46.383Z,33.20
2018-11-13T09:41:15.789Z,33.33
2018-11-13T09:43:45.145Z,33.30
2018-11-13T09:46:14.447Z,33.00
2018-11-13T09:48:43.868Z,32.80
2018-11-13T09:51:13.174Z,32.90
2018-11-13T09:53:42.663Z,32.73
2018-11-13T09:56:11.998Z,32.40
2018-11-13T09:58:41.384Z,34.13
2018-11-13T10:01:11.079Z,34.17
2018-11-13T10:03:40.828Z,33.58
2018-11-13T10:06:09.581Z,31.62
2018-11-13T10:08:38.909Z,33.47
2018-11-13T10:11:08.335Z,32.70
2018-11-13T10:13:37.632Z,31.47
2018-11-13T10:16:07.038Z,31.63
2018-11-13T10:18:36.354Z,33.13
2018-11-13T10:21:05.773Z,31.37
2018-11-13T10:23:35.103Z,31.85
2018-11-13T10:26:04.445Z,32.07
2018-11-13T10:28:33.855Z,31.33
2018-11-13T10:31:03.190Z,32.33
2018-11-13T10:33:32.521Z,29.55
2018-11-13T10:36:01.804Z,29.53
2018-11-13T10:38:31.145Z,29.73
2018-11-13T10:41:00.524Z,29.65
2018-11-13T10:43:29.774Z,29.25
2018-11-13T10:45:59.856Z,28.62
2018-11-13T10:48:29.878Z,27.70
2018-11-13T10:51:00.066Z,28.83
2018-11-13T10:53:30.139Z,27.30
2018-11-13T10:56:00.141Z,27.15
2018-11-13T10:58:30.191Z,28.10
2018-11-13T11:01:04.162Z,25.20
2018-11-13T11:03:38.709Z,24.57
2018-11-13T11:06:08.007Z,25.25
2018-11-13T11:08:37.352Z,24.72
2018-11-13T11:11:06.744Z,23.80
2018-11-13T11:13:36.131Z,24.10
2018-11-13T11:16:05.438Z,22.77
2018-11-13T11:18:34.785Z,20.90
2018-11-13T11:21:04.077Z,22.03
2018-11-13T11:23:33.433Z,20.53
2018-11-13T11:26:02.731Z,19.77
2018-11-13T11:28:32.083Z,17.80
2018-11-13T11:31:01.472Z,17.20
2018-11-13T11:33:31.028Z,17.07
2018-11-13T11:36:02.000Z,14.43
2018-11-13T11:38:31.407Z,14.80
2018-11-13T11:41:01.303Z,14.85
2018-11-13T11:43:31.274Z,15.20
2018-11-13T11:46:01.519Z,15.10
2018-11-13T11:48:31.627Z,13.98
2018-11-13T11:51:01.626Z,14.90
2018-11-13T11:53:31.543Z,14.87
2018-11-13T11:56:02.142Z,14.40
2018-11-13T11:58:32.124Z,14.15
2018-11-13T12:01:02.208Z,14.05
2018-11-13T12:03:32.130Z,13.88
2018-11-13T12:06:02.344Z,13.98
2018-11-13T12:08:32.244Z,14.15
2018-11-13T12:11:02.168Z,15.40
2018-11-13T12:13:32.638Z,14.53
2018-11-13T12:16:02.769Z,16.10
2018-11-13T12:18:32.718Z,16.17
2018-11-13T12:21:02.792Z,16.77
2018-11-13T12:23:32.773Z,16.73
2018-11-13T12:26:02.770Z,17.48
2018-11-13T12:28:32.862Z,17.40
2018-11-13T12:31:02.702Z,17.77
2018-11-13T12:33:39.555Z,16.95
2018-11-13T12:36:08.887Z,19.00
2018-11-13T12:38:38.239Z,18.03
2018-11-13T12:41:07.644Z,17.40
2018-11-13T12:43:36.939Z,17.05
2018-11-13T12:46:06.664Z,16.40
2018-11-13T12:48:36.120Z,16.67
2018-11-13T12:51:06.797Z,17.03
2018-11-13T12:53:37.159Z,16.67
2018-11-13T12:56:06.506Z,16.67
2018-11-13T12:58:35.829Z,16.07
2018-11-13T13:01:05.175Z,16.07
2018-11-13T13:03:34.498Z,16.87
2018-11-13T13:06:03.811Z,16.17
2018-11-13T13:08:35.161Z,15.90
2018-11-13T13:11:04.847Z,15.03
2018-11-13T13:13:34.176Z,15.95
2018-11-13T13:16:03.552Z,14.63
2018-11-13T13:18:33.325Z,14.80
2018-11-13T13:21:03.309Z,14.35
2018-11-13T13:23:33.249Z,14.10
2018-11-13T13:26:03.411Z,13.98
2018-11-13T13:28:33.516Z,14.07
2018-11-13T13:31:03.428Z,12.25
2018-11-13T13:33:33.482Z,11.03
2018-11-13T13:36:04.069Z,11.57
2018-11-13T13:38:37.059Z,11.25
2018-11-13T13:41:06.750Z,11.20
2018-11-13T13:43:36.346Z,10.97
2018-11-13T13:46:05.660Z,10.93
2018-11-13T13:48:35.004Z,10.10
2018-11-13T13:51:04.316Z,10.33
2018-11-13T13:53:33.688Z,10.80
2018-11-13T13:56:03.594Z,10.60
2018-11-13T13:58:33.618Z,11.20
2018-11-13T14:01:03.626Z,12.07
2018-11-13T14:03:34.784Z,12.47
2018-11-13T14:06:03.787Z,13.75
2018-11-13T14:08:33.660Z,16.00
2018-11-13T14:11:03.704Z,13.28
2018-11-13T14:13:33.704Z,11.55
2018-11-13T14:16:03.796Z,10.95
2018-11-13T14:18:33.648Z,10.90
2018-11-13T14:21:03.800Z,11.08
2018-11-13T14:23:33.762Z,10.40
2018-11-13T14:26:04.530Z,11.13
2018-11-13T14:28:34.343Z,10.48
2018-11-13T14:31:04.408Z,12.33
2018-11-13T14:33:40.665Z,10.40
2018-11-13T14:36:10.097Z,10.70
2018-11-13T14:38:39.402Z,10.28
2018-11-13T14:41:08.688Z,10.95
2018-11-13T14:43:38.068Z,13.60
2018-11-13T14:46:07.591Z,10.40
2018-11-13T14:48:37.017Z,10.70
2018-11-13T14:51:06.919Z,10.67
2018-11-13T14:53:36.315Z,10.87
2018-11-13T14:56:06.034Z,12.10
2018-11-13T14:58:35.420Z,10.77
2018-11-13T15:01:05.383Z,12.53
2018-11-13T15:03:34.901Z,11.05
2018-11-13T15:06:04.929Z,10.40
2018-11-13T15:08:34.891Z,10.13
2018-11-13T15:11:04.897Z,10.85
2018-11-13T15:13:34.807Z,10.15
2018-11-13T15:16:05.018Z,11.13
2018-11-13T15:18:34.776Z,9.40
2018-11-13T15:21:04.908Z,9.23
2018-11-13T15:23:34.784Z,8.85
2018-11-13T15:26:05.184Z,9.20
2018-11-13T15:28:34.851Z,8.25
2018-11-13T15:31:05.560Z,7.47
2018-11-13T15:33:34.984Z,8.20
2018-11-13T15:36:04.972Z,7.80
2018-11-13T15:38:34.926Z,7.28
2018-11-13T15:41:05.031Z,7.25
2018-11-13T15:43:35.001Z,7.00
2018-11-13T15:46:05.277Z,7.20
2018-11-13T15:48:35.033Z,7.20
2018-11-13T15:51:05.561Z,6.50
2018-11-13T15:53:35.578Z,6.10
2018-11-13T15:56:05.647Z,6.15
2018-11-13T15:58:35.731Z,6.05
2018-11-13T16:01:06.813Z,5.95
2018-11-13T16:03:38.569Z,6.20
2018-11-13T16:06:08.966Z,5.63
2018-11-13T16:08:38.284Z,6.00
2018-11-13T16:11:07.646Z,5.60
2018-11-13T16:13:37.016Z,6.37
2018-11-13T16:16:06.349Z,6.00
2018-11-13T16:18:36.133Z,5.97
2018-11-13T16:21:06.557Z,6.67
2018-11-13T16:23:36.064Z,8.13
2018-11-13T16:26:06.714Z,6.03
2018-11-13T16:28:36.847Z,5.13
2018-11-13T16:31:06.845Z,5.40
2018-11-13T16:33:36.699Z,5.10
2018-11-13T16:36:06.851Z,5.37
2018-11-13T16:38:36.794Z,4.60
2018-11-13T16:41:06.732Z,5.47
2018-11-13T16:43:36.722Z,4.50
2018-11-13T16:46:07.108Z,4.70
2018-11-13T16:48:36.856Z,5.10
2018-11-13T16:51:06.875Z,5.40
2018-11-13T16:53:41.918Z,4.60
2018-11-13T16:56:11.260Z,4.85
2018-11-13T16:58:40.696Z,4.30
2018-11-13T17:01:10.074Z,4.17
2018-11-13T17:03:39.523Z,4.50
2018-11-13T17:06:08.872Z,4.50
2018-11-13T17:08:38.189Z,4.40
2018-11-13T17:11:07.600Z,4.60
2018-11-13T17:13:37.209Z,4.80
2018-11-13T17:16:07.270Z,4.60
2018-11-13T17:18:37.306Z,4.45
2018-11-13T17:21:07.269Z,4.03
2018-11-13T17:23:37.309Z,4.20
2018-11-13T17:26:07.351Z,4.40
2018-11-13T17:28:37.861Z,4.57
2018-11-13T17:31:07.852Z,4.55
2018-11-13T17:33:37.715Z,4.50
2018-11-13T17:36:07.728Z,4.22
2018-11-13T17:38:37.959Z,4.08
2018-11-13T17:41:07.966Z,3.87
2018-11-13T17:43:37.869Z,3.90
2018-11-13T17:46:07.924Z,4.03
2018-11-13T17:48:38.393Z,3.27
2018-11-13T17:51:12.237Z,3.95
2018-11-13T17:53:41.628Z,4.15
2018-11-13T17:56:10.912Z,4.17
2018-11-13T17:58:40.264Z,3.37
2018-11-13T18:01:09.676Z,3.30
2018-11-13T18:03:39.198Z,3.40
2018-11-13T18:06:09.213Z,4.10
2018-11-13T18:08:39.218Z,3.70
2018-11-13T18:11:09.396Z,3.67
2018-11-13T18:13:39.350Z,4.05
2018-11-13T18:16:09.351Z,3.60
2018-11-13T18:18:39.398Z,3.67
2018-11-13T18:21:09.475Z,3.70
2018-11-13T18:23:39.511Z,3.58
2018-11-13T18:26:09.548Z,3.27
2018-11-13T18:28:39.560Z,3.30
2018-11-13T18:31:09.383Z,3.23
2018-11-13T18:33:39.562Z,3.37
2018-11-13T18:36:09.889Z,3.55
2018-11-13T18:38:40.046Z,3.20
2018-11-13T18:41:09.897Z,3.30
2018-11-13T18:43:40.046Z,3.77
2018-11-13T18:46:10.081Z,3.20
2018-11-13T18:48:40.071Z,3.33
2018-11-13T18:51:10.066Z,3.40
2018-11-13T18:53:40.061Z,3.55
2018-11-13T18:56:10.298Z,3.02
2018-11-13T18:58:40.313Z,3.10
2018-11-13T19:01:12.733Z,3.12
2018-11-13T19:03:42.186Z,3.50
2018-11-13T19:06:11.627Z,3.13
2018-11-13T19:08:40.929Z,3.23
2018-11-13T19:11:10.442Z,4.27
2018-11-13T19:13:40.365Z,3.77
2018-11-13T19:16:11.014Z,3.55
2018-11-13T19:18:40.401Z,3.10
2018-11-13T19:21:10.267Z,2.60
2018-11-13T19:23:40.336Z,3.22
2018-11-13T19:26:10.382Z,2.55
2018-11-13T19:28:40.618Z,3.30
2018-11-13T19:31:10.485Z,3.27
2018-11-13T19:33:40.595Z,3.95
2018-11-13T19:36:10.635Z,3.20
2018-11-13T19:38:40.738Z,3.37
2018-11-13T19:41:10.604Z,3.33
2018-11-13T19:43:40.623Z,3.60
2018-11-13T19:46:10.985Z,3.40
2018-11-13T19:48:40.968Z,3.50
2018-11-13T19:51:12.326Z,3.40
2018-11-13T19:53:42.000Z,3.70
2018-11-13T19:56:11.749Z,3.40
2018-11-13T19:58:41.371Z,3.93
2018-11-13T20:01:11.117Z,3.17
2018-11-13T20:03:41.354Z,3.92
2018-11-13T20:06:11.388Z,4.15
2018-11-13T20:08:41.392Z,2.98
2018-11-13T20:11:11.349Z,3.58
2018-11-13T20:13:41.103Z,3.67
2018-11-13T20:16:11.449Z,2.92
2018-11-13T20:18:41.359Z,3.10
2018-11-13T20:21:11.410Z,3.65
2018-11-13T20:23:41.326Z,3.50
2018-11-13T20:26:11.377Z,3.52
2018-11-13T20:28:41.326Z,3.70
2018-11-13T20:31:11.370Z,3.60
2018-11-13T20:33:41.254Z,3.08
2018-11-13T20:36:11.347Z,3.10
2018-11-13T20:38:41.271Z,3.10
2018-11-13T20:41:11.390Z,3.00
2018-11-13T20:43:41.857Z,4.15
2018-11-13T20:46:11.809Z,3.83
2018-11-13T20:48:41.774Z,3.17
2018-11-13T20:51:11.860Z,3.00
2018-11-13T20:53:41.949Z,3.58
2018-11-13T20:56:12.009Z,3.12
2018-11-13T20:58:41.962Z,3.50
2018-11-13T21:01:12.062Z,3.27
2018-11-13T21:03:42.029Z,3.62
2018-11-13T21:06:12.029Z,3.70
2018-11-13T21:08:42.158Z,4.30
2018-11-13T21:11:12.261Z,3.77
2018-11-13T21:13:42.282Z,3.08
2018-11-13T21:16:12.299Z,3.55
2018-11-13T21:18:42.230Z,3.22
2018-11-13T21:21:12.127Z,3.80
2018-11-13T21:23:42.548Z,3.90
2018-11-13T21:26:12.390Z,4.00
2018-11-13T21:28:42.492Z,4.53
2018-11-13T21:31:12.443Z,4.30
2018-11-13T21:33:42.560Z,4.45
2018-11-13T21:36:12.541Z,4.75
2018-11-13T21:38:42.603Z,4.67
2018-11-13T21:46:18.871Z,4.40
2018-11-13T21:48:54.020Z,4.83
2018-11-13T21:51:28.576Z,4.87
2018-11-13T21:54:02.988Z,5.57
2018-11-13T21:56:37.156Z,5.27
2018-11-13T21:59:11.717Z,6.00
2018-11-13T22:01:46.097Z,6.08
2018-11-13T22:04:19.964Z,6.30
2018-11-13T22:06:54.380Z,5.43
2018-11-13T22:09:29.554Z,6.00
2018-11-13T22:12:03.247Z,5.67
2018-11-13T22:14:37.162Z,6.03
2018-11-13T22:17:11.151Z,6.60
2018-11-13T22:19:46.607Z,6.10
2018-11-13T22:22:20.148Z,6.30
2018-11-13T22:24:55.249Z,5.58
2018-11-13T22:27:30.622Z,5.97
2018-11-13T22:30:06.801Z,5.77
2018-11-13T22:32:40.953Z,5.77
2018-11-13T22:35:17.341Z,5.50
2018-11-13T22:37:53.222Z,6.30
2018-11-13T22:40:29.826Z,6.47
2018-11-13T22:43:04.371Z,5.90
2018-11-13T22:45:37.730Z,5.67
2018-11-13T22:48:13.196Z,5.80
2018-11-13T22:50:42.683Z,6.50
2018-11-13T22:53:12.003Z,6.27
2018-11-13T22:55:41.398Z,6.10
2018-11-13T22:58:10.778Z,6.83
2018-11-13T23:00:46.339Z,6.27
2018-11-13T23:03:16.417Z,6.50
2018-11-13T23:05:46.610Z,6.62
2018-11-13T23:08:18.350Z,7.13
2018-11-13T23:10:48.559Z,6.50
2018-11-13T23:13:17.951Z,7.20
2018-11-13T23:15:47.262Z,6.77
2018-11-13T23:18:16.635Z,6.30
2018-11-13T23:20:45.971Z,6.80
2018-11-13T23:23:15.341Z,6.40
2018-11-13T23:25:44.915Z,6.83
2018-11-13T23:28:14.922Z,7.00
2018-11-13T23:30:45.061Z,6.90
2018-11-13T23:33:15.129Z,6.87
2018-11-13T23:35:45.027Z,5.90
2018-11-13T23:38:15.267Z,7.35
2018-11-13T23:40:45.271Z,6.45
2018-11-13T23:43:15.310Z,6.03
2018-11-13T23:45:45.304Z,6.08
2018-11-13T23:48:15.545Z,5.65
2018-11-13T23:50:45.509Z,7.22
2018-11-13T23:53:15.480Z,5.80
2018-11-13T23:55:45.835Z,7.47
